sensor_id;sensor_type;location;lat;lon;timestamp;pressure;altitude;pressure_sealevel;temperature;humidity
75290;BME280;63883;48.996;20.804;2023-02-18T00:01:22;96314.97;;;0.72;97.55
75290;BME280;63883;48.996;20.804;2023-02-18T00:03:48;96313.28;;;0.72;97.40
75290;BME280;63883;48.996;20.804;2023-02-18T00:06:25;96309.13;;;0.74;97.37
75290;BME280;63883;48.996;20.804;2023-02-18T00:08:51;96321.69;;;0.76;97.54
75290;BME280;63883;48.996;20.804;2023-02-18T00:11:19;96301.59;;;0.76;97.51
75290;BME280;63883;48.996;20.804;2023-02-18T00:13:56;96311.66;;;0.81;97.34
75290;BME280;63883;48.996;20.804;2023-02-18T00:16:23;96319.19;;;0.79;97.65
75290;BME280;63883;48.996;20.804;2023-02-18T00:18:49;96308.34;;;0.83;97.85
75290;BME280;63883;48.996;20.804;2023-02-18T00:21:15;96304.22;;;0.93;97.74
75290;BME280;63883;48.996;20.804;2023-02-18T00:23:41;96297.50;;;0.92;97.39
75290;BME280;63883;48.996;20.804;2023-02-18T00:26:11;96294.13;;;0.85;97.13
75290;BME280;63883;48.996;20.804;2023-02-18T00:28:37;96296.63;;;0.79;97.22
75290;BME280;63883;48.996;20.804;2023-02-18T00:31:07;96294.91;;;0.75;97.69
75290;BME280;63883;48.996;20.804;2023-02-18T00:33:33;96280.66;;;0.69;97.52
75290;BME280;63883;48.996;20.804;2023-02-18T00:36:01;96284.78;;;0.66;97.68
75290;BME280;63883;48.996;20.804;2023-02-18T00:38:27;96288.97;;;0.62;97.98
75290;BME280;63883;48.996;20.804;2023-02-18T00:40:53;96293.13;;;0.57;98.50
75290;BME280;63883;48.996;20.804;2023-02-18T00:43:18;96272.22;;;0.57;98.76
75290;BME280;63883;48.996;20.804;2023-02-18T00:45:44;96260.50;;;0.57;98.88
75290;BME280;63883;48.996;20.804;2023-02-18T00:48:10;96266.31;;;0.49;98.57
75290;BME280;63883;48.996;20.804;2023-02-18T00:50:36;96266.25;;;0.44;98.66
75290;BME280;63883;48.996;20.804;2023-02-18T00:53:01;96263.81;;;0.50;98.93
75290;BME280;63883;48.996;20.804;2023-02-18T00:55:27;96261.28;;;0.47;99.11
75290;BME280;63883;48.996;20.804;2023-02-18T00:57:52;96263.75;;;0.43;99.08
75290;BME280;63883;48.996;20.804;2023-02-18T01:00:19;96257.88;;;0.41;99.27
75290;BME280;63883;48.996;20.804;2023-02-18T01:02:44;96248.72;;;0.43;100.00
75290;BME280;63883;48.996;20.804;2023-02-18T01:05:11;96239.53;;;0.43;100.00
75290;BME280;63883;48.996;20.804;2023-02-18T01:07:36;96251.19;;;0.39;99.86
75290;BME280;63883;48.996;20.804;2023-02-18T01:10:03;96269.56;;;0.38;100.00
75290;BME280;63883;48.996;20.804;2023-02-18T01:12:28;96263.75;;;0.41;100.00
75290;BME280;63883;48.996;20.804;2023-02-18T01:14:54;96254.59;;;0.48;100.00
75290;BME280;63883;48.996;20.804;2023-02-18T01:17:20;96262.97;;;0.53;100.00
75290;BME280;63883;48.996;20.804;2023-02-18T01:19:46;96264.66;;;0.54;100.00
75290;BME280;63883;48.996;20.804;2023-02-18T01:22:11;96261.31;;;0.58;100.00
75290;BME280;63883;48.996;20.804;2023-02-18T01:24:37;96258.88;;;0.62;100.00
75290;BME280;63883;48.996;20.804;2023-02-18T01:27:03;96256.38;;;0.64;100.00
75290;BME280;63883;48.996;20.804;2023-02-18T01:29:29;96278.97;;;0.68;100.00
75290;BME280;63883;48.996;20.804;2023-02-18T01:31:55;96274.81;;;0.75;100.00
75290;BME280;63883;48.996;20.804;2023-02-18T01:34:21;96278.19;;;0.77;100.00
75290;BME280;63883;48.996;20.804;2023-02-18T01:36:46;96270.66;;;0.82;100.00
75290;BME280;63883;48.996;20.804;2023-02-18T01:39:12;96256.47;;;0.88;100.00
75290;BME280;63883;48.996;20.804;2023-02-18T01:41:38;96282.44;;;0.86;99.98
75290;BME280;63883;48.996;20.804;2023-02-18T01:46:40;96260.66;;;0.85;99.29
75290;BME280;63883;48.996;20.804;2023-02-18T01:49:06;96274.03;;;0.87;98.49
75290;BME280;63883;48.996;20.804;2023-02-18T01:51:43;96265.66;;;0.83;98.32
75290;BME280;63883;48.996;20.804;2023-02-18T01:54:16;96248.06;;;0.77;98.23
75290;BME280;63883;48.996;20.804;2023-02-18T01:57:13;96246.41;;;0.79;98.20
75290;BME280;63883;48.996;20.804;2023-02-18T01:59:43;96252.25;;;0.79;98.25
75290;BME280;63883;48.996;20.804;2023-02-18T02:02:14;96254.75;;;0.76;98.07
75290;BME280;63883;48.996;20.804;2023-02-18T02:04:42;96245.53;;;0.72;98.11
75290;BME280;63883;48.996;20.804;2023-02-18T02:07:07;96240.47;;;0.66;98.16
75290;BME280;63883;48.996;20.804;2023-02-18T02:09:34;96237.09;;;0.61;98.29
75290;BME280;63883;48.996;20.804;2023-02-18T02:23:16;96257.16;;;0.57;98.77
75290;BME280;63883;48.996;20.804;2023-02-18T02:34:56;96268.03;;;0.57;99.16
75290;BME280;63883;48.996;20.804;2023-02-18T02:37:53;96259.69;;;0.57;99.19
75290;BME280;63883;48.996;20.804;2023-02-18T02:40:37;96239.66;;;0.64;99.26
75290;BME280;63883;48.996;20.804;2023-02-18T02:43:32;96248.00;;;0.66;99.03
75290;BME280;63883;48.996;20.804;2023-02-18T02:46:10;96260.56;;;0.68;98.92
75290;BME280;63883;48.996;20.804;2023-02-18T02:51:17;96267.28;;;0.72;98.84
75290;BME280;63883;48.996;20.804;2023-02-18T02:53:44;96263.13;;;0.77;98.95
75290;BME280;63883;48.996;20.804;2023-02-18T02:56:22;96255.63;;;0.78;98.71
75290;BME280;63883;48.996;20.804;2023-02-18T02:58:58;96275.75;;;0.86;98.48
75290;BME280;63883;48.996;20.804;2023-02-18T03:01:46;96279.09;;;0.90;98.49
75290;BME280;63883;48.996;20.804;2023-02-18T03:17:50;96307.47;;;0.81;99.09
75290;BME280;63883;48.996;20.804;2023-02-18T03:20:24;96295.75;;;0.80;98.89
75290;BME280;63883;48.996;20.804;2023-02-18T03:22:52;96299.16;;;0.90;99.54
75290;BME280;63883;48.996;20.804;2023-02-18T03:25:20;96291.66;;;0.91;99.33
75290;BME280;63883;48.996;20.804;2023-02-18T03:27:50;96301.72;;;0.93;99.33
75290;BME280;63883;48.996;20.804;2023-02-18T03:30:50;96282.44;;;0.90;99.03
75290;BME280;63883;48.996;20.804;2023-02-18T03:33:29;96282.44;;;0.92;98.78
75290;BME280;63883;48.996;20.804;2023-02-18T03:35:56;96278.25;;;0.89;98.82
75290;BME280;63883;48.996;20.804;2023-02-18T03:38:32;96274.03;;;0.82;98.59
75290;BME280;63883;48.996;20.804;2023-02-18T03:41:00;96296.63;;;0.82;98.42
75290;BME280;63883;48.996;20.804;2023-02-18T03:43:25;96289.03;;;0.74;98.55
75290;BME280;63883;48.996;20.804;2023-02-18T03:45:51;96309.94;;;0.73;98.66
75290;BME280;63883;48.996;20.804;2023-02-18T03:48:17;96298.19;;;0.68;99.13
75290;BME280;63883;48.996;20.804;2023-02-18T03:50:43;96313.28;;;0.69;99.59
75290;BME280;63883;48.996;20.804;2023-02-18T03:53:08;96305.81;;;0.78;99.26
75290;BME280;63883;48.996;20.804;2023-02-18T03:55:34;96313.34;;;0.82;99.24
75290;BME280;63883;48.996;20.804;2023-02-18T03:58:00;96325.88;;;0.82;99.33
75290;BME280;63883;48.996;20.804;2023-02-18T04:00:26;96335.13;;;0.89;99.21
75290;BME280;63883;48.996;20.804;2023-02-18T04:02:51;96331.03;;;0.98;99.41
75290;BME280;63883;48.996;20.804;2023-02-18T04:05:17;96299.25;;;1.05;99.31
75290;BME280;63883;48.996;20.804;2023-02-18T04:07:43;96302.63;;;1.11;99.71
75290;BME280;63883;48.996;20.804;2023-02-18T04:10:09;96300.25;;;1.40;100.00
75290;BME280;63883;48.996;20.804;2023-02-18T04:12:35;96318.72;;;1.58;100.00
75290;BME280;63883;48.996;20.804;2023-02-18T04:15:01;96310.47;;;2.59;97.45
75290;BME280;63883;48.996;20.804;2023-02-18T04:17:26;96314.63;;;2.83;93.18
75290;BME280;63883;48.996;20.804;2023-02-18T04:19:52;96296.16;;;2.85;92.49
75290;BME280;63883;48.996;20.804;2023-02-18T04:22:18;96299.50;;;2.93;92.33
75290;BME280;63883;48.996;20.804;2023-02-18T04:24:43;96322.13;;;3.14;90.63
75290;BME280;63883;48.996;20.804;2023-02-18T04:27:09;96303.50;;;3.49;88.88
75290;BME280;63883;48.996;20.804;2023-02-18T04:29:35;96309.00;;;4.18;83.64
75290;BME280;63883;48.996;20.804;2023-02-18T04:32:00;96304.75;;;6.48;71.66
75290;BME280;63883;48.996;20.804;2023-02-18T04:34:26;96303.00;;;7.00;69.41
75290;BME280;63883;48.996;20.804;2023-02-18T04:36:52;96306.06;;;7.62;66.07
75290;BME280;63883;48.996;20.804;2023-02-18T04:39:18;96311.81;;;8.09;63.69
75290;BME280;63883;48.996;20.804;2023-02-18T04:41:43;96306.69;;;7.72;67.10
75290;BME280;63883;48.996;20.804;2023-02-18T04:44:09;96298.25;;;6.82;71.69
75290;BME280;63883;48.996;20.804;2023-02-18T04:46:35;96308.47;;;6.25;73.65
75290;BME280;63883;48.996;20.804;2023-02-18T04:49:00;96322.00;;;6.23;71.65
75290;BME280;63883;48.996;20.804;2023-02-18T04:51:26;96320.50;;;6.10;72.13
75290;BME280;63883;48.996;20.804;2023-02-18T04:53:52;96329.16;;;5.23;75.31
75290;BME280;63883;48.996;20.804;2023-02-18T04:56:17;96327.13;;;4.70;78.07
75290;BME280;63883;48.996;20.804;2023-02-18T04:58:43;96339.19;;;4.36;79.90
75290;BME280;63883;48.996;20.804;2023-02-18T05:01:09;96347.69;;;4.20;81.22
75290;BME280;63883;48.996;20.804;2023-02-18T05:03:35;96354.53;;;4.03;82.28
75290;BME280;63883;48.996;20.804;2023-02-18T05:06:01;96348.63;;;4.08;82.08
75290;BME280;63883;48.996;20.804;2023-02-18T05:08:27;96332.69;;;4.03;82.18
75290;BME280;63883;48.996;20.804;2023-02-18T05:10:52;96333.47;;;4.07;82.36
75290;BME280;63883;48.996;20.804;2023-02-18T05:13:18;96338.56;;;4.01;82.10
75290;BME280;63883;48.996;20.804;2023-02-18T05:15:44;96348.06;;;3.48;84.22
75290;BME280;63883;48.996;20.804;2023-02-18T05:18:10;96369.97;;;3.27;85.83
75290;BME280;63883;48.996;20.804;2023-02-18T05:20:35;96344.81;;;3.08;87.36
75290;BME280;63883;48.996;20.804;2023-02-18T05:23:01;96317.09;;;3.10;87.31
75290;BME280;63883;48.996;20.804;2023-02-18T05:25:27;96341.44;;;3.03;87.34
75290;BME280;63883;48.996;20.804;2023-02-18T05:27:52;96365.00;;;2.84;88.02
75290;BME280;63883;48.996;20.804;2023-02-18T05:30:18;96342.34;;;2.75;88.63
75290;BME280;63883;48.996;20.804;2023-02-18T05:32:44;96368.34;;;2.82;90.90
75290;BME280;63883;48.996;20.804;2023-02-18T05:35:10;96386.84;;;2.81;92.17
75290;BME280;63883;48.996;20.804;2023-02-18T05:37:36;96408.66;;;2.92;92.63
75290;BME280;63883;48.996;20.804;2023-02-18T05:40:02;96380.09;;;3.02;91.88
75290;BME280;63883;48.996;20.804;2023-02-18T05:42:28;96374.19;;;3.03;90.33
75290;BME280;63883;48.996;20.804;2023-02-18T05:44:54;96371.69;;;3.00;91.70
75290;BME280;63883;48.996;20.804;2023-02-18T05:47:20;96401.84;;;3.43;88.35
75290;BME280;63883;48.996;20.804;2023-02-18T05:49:45;96367.34;;;3.56;87.87
75290;BME280;63883;48.996;20.804;2023-02-18T05:52:11;96324.41;;;3.75;86.65
75290;BME280;63883;48.996;20.804;2023-02-18T05:54:37;96349.28;;;4.33;74.29
75290;BME280;63883;48.996;20.804;2023-02-18T05:57:03;96350.09;;;5.34;65.92
75290;BME280;63883;48.996;20.804;2023-02-18T05:59:29;96343.56;;;5.90;63.03
75290;BME280;63883;48.996;20.804;2023-02-18T06:01:56;96345.00;;;6.66;59.97
75290;BME280;63883;48.996;20.804;2023-02-18T06:04:22;96441.28;;;6.66;61.10
75290;BME280;63883;48.996;20.804;2023-02-18T06:06:47;96342.41;;;7.20;59.01
75290;BME280;63883;48.996;20.804;2023-02-18T06:09:13;96360.97;;;7.66;52.30
75290;BME280;63883;48.996;20.804;2023-02-18T06:11:39;96380.84;;;7.88;53.72
75290;BME280;63883;48.996;20.804;2023-02-18T06:14:05;96354.41;;;7.98;53.05
75290;BME280;63883;48.996;20.804;2023-02-18T06:16:31;96362.63;;;7.67;57.44
75290;BME280;63883;48.996;20.804;2023-02-18T06:18:56;96382.88;;;6.74;67.70
75290;BME280;63883;48.996;20.804;2023-02-18T06:21:22;96410.03;;;6.67;60.73
75290;BME280;63883;48.996;20.804;2023-02-18T06:23:48;96407.03;;;6.41;69.25
75290;BME280;63883;48.996;20.804;2023-02-18T06:26:14;96387.41;;;5.92;72.48
75290;BME280;63883;48.996;20.804;2023-02-18T06:28:40;96373.50;;;5.55;74.11
75290;BME280;63883;48.996;20.804;2023-02-18T06:31:06;96389.06;;;5.15;75.92
75290;BME280;63883;48.996;20.804;2023-02-18T06:33:31;96408.69;;;4.84;77.67
75290;BME280;63883;48.996;20.804;2023-02-18T06:36:03;96404.56;;;4.72;79.47
75290;BME280;63883;48.996;20.804;2023-02-18T06:38:32;96380.16;;;4.75;79.39
75290;BME280;63883;48.996;20.804;2023-02-18T06:40:59;96409.75;;;4.54;80.23
75290;BME280;63883;48.996;20.804;2023-02-18T06:43:24;96417.44;;;4.38;82.22
75290;BME280;63883;48.996;20.804;2023-02-18T06:45:50;96433.44;;;4.33;82.63
75290;BME280;63883;48.996;20.804;2023-02-18T06:48:16;96408.25;;;4.23;82.80
75290;BME280;63883;48.996;20.804;2023-02-18T06:50:43;96399.97;;;4.03;84.07
75290;BME280;63883;48.996;20.804;2023-02-18T06:53:08;96417.63;;;3.97;84.33
75290;BME280;63883;48.996;20.804;2023-02-18T06:55:35;96410.88;;;4.08;84.27
75290;BME280;63883;48.996;20.804;2023-02-18T06:58:00;96422.56;;;4.18;83.76
75290;BME280;63883;48.996;20.804;2023-02-18T07:00:26;96406.63;;;4.13;83.29
75290;BME280;63883;48.996;20.804;2023-02-18T07:02:52;96400.78;;;4.08;83.06
75290;BME280;63883;48.996;20.804;2023-02-18T07:05:18;96433.63;;;3.94;83.66
75290;BME280;63883;48.996;20.804;2023-02-18T07:07:44;96423.56;;;3.82;84.87
75290;BME280;63883;48.996;20.804;2023-02-18T07:10:10;96425.31;;;3.72;84.57
75290;BME280;63883;48.996;20.804;2023-02-18T07:12:35;96427.00;;;3.67;84.95
75290;BME280;63883;48.996;20.804;2023-02-18T07:15:02;96399.28;;;3.66;85.38
75290;BME280;63883;48.996;20.804;2023-02-18T07:17:28;96410.16;;;3.72;84.45
75290;BME280;63883;48.996;20.804;2023-02-18T07:19:53;96431.16;;;3.80;84.47
75290;BME280;63883;48.996;20.804;2023-02-18T07:22:21;96420.25;;;3.81;84.62
75290;BME280;63883;48.996;20.804;2023-02-18T07:24:51;96405.91;;;3.88;84.16
75290;BME280;63883;48.996;20.804;2023-02-18T07:27:17;96385.53;;;4.23;81.95
75290;BME280;63883;48.996;20.804;2023-02-18T07:29:43;96416.47;;;4.60;79.21
75290;BME280;63883;48.996;20.804;2023-02-18T07:32:11;96425.78;;;4.50;80.06
75290;BME280;63883;48.996;20.804;2023-02-18T07:34:37;96409.78;;;4.47;80.48
75290;BME280;63883;48.996;20.804;2023-02-18T07:37:03;96417.34;;;4.51;80.43
75290;BME280;63883;48.996;20.804;2023-02-18T07:39:43;96430.81;;;4.53;80.35
75290;BME280;63883;48.996;20.804;2023-02-18T07:42:10;96408.94;;;4.49;80.32
75290;BME280;63883;48.996;20.804;2023-02-18T07:44:36;96444.31;;;4.45;80.34
75290;BME280;63883;48.996;20.804;2023-02-18T07:47:04;96427.63;;;4.24;80.90
75290;BME280;63883;48.996;20.804;2023-02-18T07:49:30;96430.13;;;4.18;81.31
75290;BME280;63883;48.996;20.804;2023-02-18T07:51:56;96411.63;;;4.19;81.74
75290;BME280;63883;48.996;20.804;2023-02-18T07:54:22;96426.78;;;4.22;81.92
75290;BME280;63883;48.996;20.804;2023-02-18T07:56:48;96444.47;;;4.14;81.76
75290;BME280;63883;48.996;20.804;2023-02-18T07:59:14;96408.25;;;4.20;81.79
75290;BME280;63883;48.996;20.804;2023-02-18T08:01:40;96458.81;;;4.08;82.26
75290;BME280;63883;48.996;20.804;2023-02-18T08:04:06;96446.19;;;4.09;82.36
75290;BME280;63883;48.996;20.804;2023-02-18T08:06:38;96462.16;;;4.07;82.38
75290;BME280;63883;48.996;20.804;2023-02-18T08:09:05;96456.31;;;4.03;82.67
75290;BME280;63883;48.996;20.804;2023-02-18T08:11:31;96461.34;;;4.05;82.79
75290;BME280;63883;48.996;20.804;2023-02-18T08:13:57;96459.63;;;4.11;82.61
75290;BME280;63883;48.996;20.804;2023-02-18T08:16:24;96485.66;;;4.18;82.49
75290;BME280;63883;48.996;20.804;2023-02-18T08:18:51;96463.78;;;4.23;82.27
75290;BME280;63883;48.996;20.804;2023-02-18T08:21:19;96468.75;;;4.43;81.49
75290;BME280;63883;48.996;20.804;2023-02-18T08:23:46;96488.91;;;4.50;81.27
75290;BME280;63883;48.996;20.804;2023-02-18T08:26:12;96460.25;;;4.54;80.81
75290;BME280;63883;48.996;20.804;2023-02-18T08:28:39;96470.34;;;4.57;80.85
75290;BME280;63883;48.996;20.804;2023-02-18T08:31:04;96461.91;;;4.57;80.97
75290;BME280;63883;48.996;20.804;2023-02-18T08:33:31;96465.19;;;4.72;80.38
75290;BME280;63883;48.996;20.804;2023-02-18T08:35:57;96468.53;;;4.81;79.80
75290;BME280;63883;48.996;20.804;2023-02-18T08:38:24;96463.47;;;4.81;78.99
75290;BME280;63883;48.996;20.804;2023-02-18T08:40:50;96466.00;;;4.81;79.62
75290;BME280;63883;48.996;20.804;2023-02-18T08:43:17;96454.88;;;5.01;78.47
75290;BME280;63883;48.996;20.804;2023-02-18T08:45:43;96462.63;;;4.76;78.81
75290;BME280;63883;48.996;20.804;2023-02-18T08:48:11;96491.44;;;4.50;80.60
75290;BME280;63883;48.996;20.804;2023-02-18T08:50:37;96473.72;;;4.55;80.67
75290;BME280;63883;48.996;20.804;2023-02-18T08:53:03;96461.78;;;4.77;79.85
75290;BME280;63883;48.996;20.804;2023-02-18T08:55:31;96460.97;;;4.75;79.95
75290;BME280;63883;48.996;20.804;2023-02-18T08:57:57;96454.09;;;4.93;79.19
75290;BME280;63883;48.996;20.804;2023-02-18T09:00:23;96465.78;;;5.05;79.08
75290;BME280;63883;48.996;20.804;2023-02-18T09:02:49;96468.06;;;5.35;77.92
75290;BME280;63883;48.996;20.804;2023-02-18T09:05:14;96436.69;;;5.58;75.98
75290;BME280;63883;48.996;20.804;2023-02-18T09:07:40;96455.09;;;5.70;75.00
75290;BME280;63883;48.996;20.804;2023-02-18T09:10:07;96430.53;;;5.78;74.45
75290;BME280;63883;48.996;20.804;2023-02-18T09:12:33;96444.91;;;5.76;73.94
75290;BME280;63883;48.996;20.804;2023-02-18T09:14:59;96455.09;;;5.72;75.29
75290;BME280;63883;48.996;20.804;2023-02-18T09:17:26;96460.69;;;6.04;73.99
75290;BME280;63883;48.996;20.804;2023-02-18T09:19:52;96467.78;;;6.44;72.09
75290;BME280;63883;48.996;20.804;2023-02-18T09:22:18;96455.75;;;6.59;71.00
75290;BME280;63883;48.996;20.804;2023-02-18T09:24:44;96446.25;;;6.74;69.92
75290;BME280;63883;48.996;20.804;2023-02-18T09:27:10;96446.84;;;6.91;68.72
75290;BME280;63883;48.996;20.804;2023-02-18T09:29:39;96454.22;;;7.04;68.62
75290;BME280;63883;48.996;20.804;2023-02-18T09:32:07;96440.50;;;7.18;68.27
75290;BME280;63883;48.996;20.804;2023-02-18T09:34:33;96441.84;;;7.38;67.31
75290;BME280;63883;48.996;20.804;2023-02-18T09:36:59;96426.25;;;7.58;65.67
75290;BME280;63883;48.996;20.804;2023-02-18T09:39:24;96415.53;;;7.89;60.89
75290;BME280;63883;48.996;20.804;2023-02-18T09:41:52;96431.88;;;8.17;59.45
75290;BME280;63883;48.996;20.804;2023-02-18T09:47:12;96437.34;;;7.99;58.93
75290;BME280;63883;48.996;20.804;2023-02-18T09:49:43;96438.06;;;8.05;57.39
75290;BME280;63883;48.996;20.804;2023-02-18T09:52:40;96436.31;;;8.07;58.03
75290;BME280;63883;48.996;20.804;2023-02-18T09:55:17;96439.31;;;8.28;57.03
75290;BME280;63883;48.996;20.804;2023-02-18T09:57:46;96426.31;;;8.43;55.71
75290;BME280;63883;48.996;20.804;2023-02-18T10:00:17;96433.47;;;8.64;56.25
75290;BME280;63883;48.996;20.804;2023-02-18T10:02:54;96446.41;;;8.53;56.54
75290;BME280;63883;48.996;20.804;2023-02-18T10:05:22;96443.22;;;8.44;58.00
75290;BME280;63883;48.996;20.804;2023-02-18T10:07:53;96428.81;;;8.44;58.82
75290;BME280;63883;48.996;20.804;2023-02-18T10:12:48;96443.28;;;8.42;57.89
75290;BME280;63883;48.996;20.804;2023-02-18T10:15:22;96434.72;;;8.45;58.71
75290;BME280;63883;48.996;20.804;2023-02-18T10:17:52;96406.75;;;8.45;58.92
75290;BME280;63883;48.996;20.804;2023-02-18T10:20:23;96410.22;;;8.42;58.61
75290;BME280;63883;48.996;20.804;2023-02-18T10:22:50;96402.91;;;8.66;55.35
75290;BME280;63883;48.996;20.804;2023-02-18T10:25:20;96404.59;;;8.67;57.36
75290;BME280;63883;48.996;20.804;2023-02-18T10:27:47;96396.06;;;8.69;56.70
75290;BME280;63883;48.996;20.804;2023-02-18T10:32:42;96382.19;;;9.16;51.19
75290;BME280;63883;48.996;20.804;2023-02-18T10:38:19;96400.81;;;8.83;54.90
75290;BME280;63883;48.996;20.804;2023-02-18T10:51:31;96412.38;;;7.77;61.35
75290;BME280;63883;48.996;20.804;2023-02-18T10:53:58;96396.19;;;7.81;61.78
75290;BME280;63883;48.996;20.804;2023-02-18T10:56:40;96402.69;;;7.96;60.26
75290;BME280;63883;48.996;20.804;2023-02-18T10:59:18;96385.47;;;8.09;60.31
75290;BME280;63883;48.996;20.804;2023-02-18T11:01:44;96385.72;;;8.40;58.92
75290;BME280;63883;48.996;20.804;2023-02-18T11:04:15;96397.91;;;8.63;57.19
75290;BME280;63883;48.996;20.804;2023-02-18T11:06:47;96393.13;;;8.86;55.58
75290;BME280;63883;48.996;20.804;2023-02-18T11:12:13;96348.28;;;9.16;54.60
75290;BME280;63883;48.996;20.804;2023-02-18T11:14:46;96360.16;;;9.49;54.06
75290;BME280;63883;48.996;20.804;2023-02-18T11:17:21;96365.72;;;9.63;53.21
75290;BME280;63883;48.996;20.804;2023-02-18T11:20:01;96372.09;;;9.78;52.93
75290;BME280;63883;48.996;20.804;2023-02-18T11:22:30;96370.19;;;9.86;52.79
75290;BME280;63883;48.996;20.804;2023-02-18T11:25:00;96359.84;;;9.60;53.53
75290;BME280;63883;48.996;20.804;2023-02-18T11:27:41;96358.75;;;9.37;53.79
75290;BME280;63883;48.996;20.804;2023-02-18T11:30:24;96365.22;;;9.51;54.08
75290;BME280;63883;48.996;20.804;2023-02-18T11:33:09;96356.94;;;9.43;54.12
75290;BME280;63883;48.996;20.804;2023-02-18T11:35:48;96341.84;;;9.66;52.84
75290;BME280;63883;48.996;20.804;2023-02-18T11:40:54;96338.22;;;10.04;51.80
75290;BME280;63883;48.996;20.804;2023-02-18T11:43:20;96315.25;;;10.61;49.22
75290;BME280;63883;48.996;20.804;2023-02-18T11:45:46;96330.06;;;11.03;48.59
75290;BME280;63883;48.996;20.804;2023-02-18T11:48:17;96336.22;;;10.71;50.13
75290;BME280;63883;48.996;20.804;2023-02-18T11:50:44;96341.88;;;10.80;49.76
75290;BME280;63883;48.996;20.804;2023-02-18T11:53:31;96332.09;;;10.93;49.28
75290;BME280;63883;48.996;20.804;2023-02-18T11:55:59;96335.44;;;11.20;48.81
75290;BME280;63883;48.996;20.804;2023-02-18T11:58:27;96329.16;;;11.30;48.59
75290;BME280;63883;48.996;20.804;2023-02-18T12:00:58;96323.22;;;11.53;47.91
75290;BME280;63883;48.996;20.804;2023-02-18T12:08:51;96318.81;;;12.28;45.66
75290;BME280;63883;48.996;20.804;2023-02-18T12:11:33;96318.00;;;13.11;43.43
75290;BME280;63883;48.996;20.804;2023-02-18T12:14:01;96314.47;;;13.15;42.87
75290;BME280;63883;48.996;20.804;2023-02-18T12:16:44;96312.75;;;12.94;42.91
75290;BME280;63883;48.996;20.804;2023-02-18T12:22:40;96305.56;;;11.95;45.94
75290;BME280;63883;48.996;20.804;2023-02-18T12:28:09;96310.19;;;11.60;46.96
75290;BME280;63883;48.996;20.804;2023-02-18T12:31:22;96302.94;;;11.50;47.76
75290;BME280;63883;48.996;20.804;2023-02-18T12:33:38;96306.91;;;11.33;48.42
75290;BME280;63883;48.996;20.804;2023-02-18T12:36:30;96302.00;;;11.03;49.41
75290;BME280;63883;48.996;20.804;2023-02-18T12:39:05;96293.13;;;10.88;49.66
75290;BME280;63883;48.996;20.804;2023-02-18T12:47:35;96294.22;;;10.54;51.53
75290;BME280;63883;48.996;20.804;2023-02-18T12:55:40;96290.72;;;10.31;52.92
75290;BME280;63883;48.996;20.804;2023-02-18T13:09:43;96267.22;;;10.49;53.52
75290;BME280;63883;48.996;20.804;2023-02-18T13:12:00;96263.38;;;10.36;53.73
75290;BME280;63883;48.996;20.804;2023-02-18T13:14:32;96266.94;;;10.58;53.66
75290;BME280;63883;48.996;20.804;2023-02-18T13:17:02;96260.75;;;10.65;53.79
75290;BME280;63883;48.996;20.804;2023-02-18T13:19:47;96263.16;;;10.43;54.30
75290;BME280;63883;48.996;20.804;2023-02-18T13:22:17;96256.34;;;10.44;54.16
75290;BME280;63883;48.996;20.804;2023-02-18T13:24:46;96262.00;;;10.26;55.23
75290;BME280;63883;48.996;20.804;2023-02-18T13:32:39;96259.31;;;11.08;53.67
75290;BME280;63883;48.996;20.804;2023-02-18T13:35:21;96260.91;;;10.59;55.37
75290;BME280;63883;48.996;20.804;2023-02-18T13:40:28;96258.19;;;10.11;57.52
75290;BME280;63883;48.996;20.804;2023-02-18T13:46:04;96246.47;;;10.05;58.31
75290;BME280;63883;48.996;20.804;2023-02-18T13:48:54;96241.22;;;9.82;59.27
75290;BME280;63883;48.996;20.804;2023-02-18T13:51:31;96234.81;;;9.69;60.03
75290;BME280;63883;48.996;20.804;2023-02-18T13:57:21;96226.28;;;9.99;59.16
75290;BME280;63883;48.996;20.804;2023-02-18T13:59:58;96210.16;;;10.27;58.58
75290;BME280;63883;48.996;20.804;2023-02-18T14:02:32;96211.25;;;10.18;58.87
75290;BME280;63883;48.996;20.804;2023-02-18T14:05:21;96206.56;;;10.04;59.38
75290;BME280;63883;48.996;20.804;2023-02-18T14:08:35;96201.75;;;9.67;61.00
75290;BME280;63883;48.996;20.804;2023-02-18T14:11:22;96202.13;;;9.55;61.00
75290;BME280;63883;48.996;20.804;2023-02-18T14:27:36;96189.03;;;9.67;61.35
75290;BME280;63883;48.996;20.804;2023-02-18T14:30:04;96190.97;;;10.41;58.64
75290;BME280;63883;48.996;20.804;2023-02-18T14:32:32;96179.50;;;12.36;52.95
75290;BME280;63883;48.996;20.804;2023-02-18T14:49:12;96169.63;;;10.69;57.65
75290;BME280;63883;48.996;20.804;2023-02-18T14:51:43;96167.44;;;10.33;59.16
75290;BME280;63883;48.996;20.804;2023-02-18T14:54:16;96158.84;;;10.09;59.73
75290;BME280;63883;48.996;20.804;2023-02-18T14:57:04;96161.66;;;9.74;61.27
75290;BME280;63883;48.996;20.804;2023-02-18T14:59:38;96160.63;;;9.52;62.08
75290;BME280;63883;48.996;20.804;2023-02-18T15:02:17;96154.63;;;9.26;63.49
75290;BME280;63883;48.996;20.804;2023-02-18T15:04:44;96154.03;;;9.17;63.92
75290;BME280;63883;48.996;20.804;2023-02-18T15:07:10;96151.78;;;9.08;64.19
75290;BME280;63883;48.996;20.804;2023-02-18T15:09:45;96152.00;;;9.00;64.93
75290;BME280;63883;48.996;20.804;2023-02-18T15:12:13;96134.00;;;9.06;65.48
75290;BME280;63883;48.996;20.804;2023-02-18T15:14:41;96132.84;;;9.16;65.14
75290;BME280;63883;48.996;20.804;2023-02-18T15:17:14;96136.00;;;9.24;64.82
75290;BME280;63883;48.996;20.804;2023-02-18T15:19:46;96121.69;;;9.22;65.27
75290;BME280;63883;48.996;20.804;2023-02-18T15:22:16;96121.19;;;9.09;65.82
75290;BME280;63883;48.996;20.804;2023-02-18T15:24:43;96105.91;;;9.09;65.66
75290;BME280;63883;48.996;20.804;2023-02-18T15:27:19;96100.94;;;9.06;66.16
75290;BME280;63883;48.996;20.804;2023-02-18T15:32:31;96099.28;;;9.05;66.09
75290;BME280;63883;48.996;20.804;2023-02-18T15:35:00;96090.44;;;8.87;66.11